x

West Erie - 16 Nm Nw Of Lorain, Oh (45005) Weather Station

4:40am - Thu 29th Sep 2016 All times are CDT. -5 hours from GMT.

  • Wind
    11mph, 16mph gusts
  • Sea Temp 70°f
  • Air Temp 63°f
  • Sea Pressure 1016.3mb
  • West Erie - 16 Nm Nw Of Lorain, Oh
  • West Erie - 16 Nm Nw Of Lorain, Oh

More Historic Weather Station data

Upgrade to MSW Pro to gain access to the past 30 days of data for over 8000 Wavebouys and Weather Stations around the globe.

Join Pro

Comparision Forecast

View Surf forecast
   
Thu 09/29 4:40am  -   -   -  11 16 mph 1016.3mb 70f 63f
4:30am  -   -   -  13 18 mph 1016.2mb 70f 63f
4:20am  -   -   -  13 18 mph 1016.3mb 70f 63f
4:10am  -   -   -  13 18 mph 1016.2mb 71f 63f
4:00am  -   -   -  16 18 mph 1016.2mb 71f 63f
3:50am 3ft 5s 4s 16 20 mph 1015.9mb 71f 63f
3:40am 3ft  -  4s 16 18 mph 1015.9mb 71f 63f
3:30am  -   -   -  13 18 mph 1015.8mb 71f 63f
3:20am  -   -   -  13 18 mph 1015.6mb 71f 64f
3:10am  -   -   -  13 18 mph 1015.5mb 71f 64f
3:00am  -   -   -  16 18 mph 1015.4mb 71f 64f
2:50am 2.5ft 5s 4s 16 20 mph 1015.4mb 71f 64f
2:40am  -   -   -  16 20 mph 1015.4mb 71f 64f
2:30am  -   -   -  18 22 mph 1015.4mb 71f 64f
2:20am  -   -   -  20 25 mph 1015.2mb 71f 64f
2:10am  -   -   -  20 25 mph 1015.1mb 71f 65f
2:00am  -   -   -  18 22 mph 1015.1mb 71f 65f
1:50am 2.5ft 5s 4s 18 20 mph 1015.2mb 71f 65f
1:40am  -   -   -  18 22 mph 1015.2mb 71f 65f
1:30am  -   -   -  16 20 mph 1015.3mb 71f 65f
1:20am  -   -   -  9 13 mph 1015.2mb 71f 64f
1:10am  -   -   -  7 11 mph 1015mb 71f 64f
1:00am  -   -   -  7 11 mph 1015.2mb 71f 63f
12:50am 2.5ft 5s 4s 9 13 mph 1015.4mb 71f 63f
12:40am 2.5ft  -  4s 11 20 mph 1015.3mb 71f 63f
12:30am  -   -   -  13 22 mph 1015.3mb 71f 64f
12:20am  -   -   -  16 20 mph 1015.6mb 71f 64f
12:10am  -   -   -  18 22 mph 1015.3mb 71f 64f
12:00am  -   -   -  16 18 mph 1015.3mb 71f 64f
Wed 09/28 11:50pm 2.5ft 5s 4s 16 20 mph 1015.3mb 71f 64f
11:40pm  -   -   -  13 18 mph 1015.4mb 71f 64f
11:30pm  -   -   -  11 13 mph 1015.4mb 71f 63f
11:20pm  -   -   -  9 11 mph 1015.4mb 71f 62f
11:10pm  -   -   -  9 11 mph 1015.6mb 71f 62f
11:00pm  -   -   -  9 11 mph 1015.5mb 71f 62f
10:50pm 2ft 4s 4s 7 9 mph 1015.6mb 71f 62f
10:40pm 2ft  -  4s 4 9 mph 1015.6mb 71f 62f
10:30pm  -   -   -  4 7 mph 1015.7mb 71f 62f
10:20pm  -   -   -  7 11 mph 1015.9mb 71f 62f
10:10pm  -   -   -  11 16 mph 1016.2mb 71f 63f
10:00pm  -   -   -  13 16 mph 1016.3mb 71f 64f
9:50pm 1.3ft 5s 3s 13 16 mph 1016mb 71f 64f
9:40pm  -   -   -  11 18 mph 1015.9mb 71f 65f
9:30pm  -   -   -  13 16 mph 1015.6mb 71f 65f
9:20pm  -   -   -  11 18 mph 1015.3mb 71f 66f
9:10pm  -   -   -  11 13 mph 1015mb 71f 66f
9:00pm  -   -   -  13 16 mph 1014.9mb 71f 65f
8:50pm 1.3ft 3s 3s 13 18 mph 1014.9mb 71f 65f
8:40pm 1.3ft  -  3s 16 18 mph 1015mb 71f 65f
8:30pm  -   -   -  16 18 mph 1015.2mb 71f 65f
8:20pm  -   -   -  16 20 mph 1015.2mb 71f 65f
8:10pm  -   -   -  16 18 mph 1015.2mb 71f 65f
8:00pm  -   -   -  16 20 mph 1015.2mb 71f 64f
7:50pm 0.7ft  -  3s 13 18 mph 1015.3mb 71f 64f
7:40pm 0.7ft  -  3s  -  mph - - -
7:30pm  -   -   -  13 18 mph 1015.1mb 71f 64f
7:20pm  -   -   -  13 16 mph 1015.1mb 71f 64f
7:10pm  -   -   -  11 13 mph 1015.1mb 71f 64f
7:00pm  -   -   -  11 13 mph 1015.2mb 71f 65f
6:50pm 0.7ft  -  3s 11 13 mph 1015.2mb 71f 65f
6:40pm 0.7ft  -  3s 11 13 mph 1015.1mb 71f 65f
6:30pm  -   -   -  11 13 mph 1014.9mb 71f 65f
6:20pm  -   -   -  11 16 mph 1014.8mb 71f 65f
6:10pm  -   -   -  13 18 mph 1014.7mb 71f 65f
6:00pm  -   -   -  9 16 mph 1014.5mb 71f 67f
5:50pm 1ft 3s 3s 7 9 mph 1014.4mb 71f 66f
5:40pm  -   -   -  9 11 mph 1014.2mb 71f 66f
5:30pm  -   -   -  9 11 mph 1014.1mb 71f 66f
5:20pm  -   -   -  11 13 mph 1014mb 71f 66f
5:10pm  -   -   -  11 13 mph 1013.8mb 71f 65f
5:00pm  -   -   -  9 13 mph 1013.9mb 71f 65f
4:50pm 1ft 2s 3s 11 13 mph 1013.8mb 71f 65f
4:40pm 1ft  -  3s 11 13 mph 1013.7mb 71f 66f
4:30pm  -   -   -  11 13 mph 1013.6mb 71f 65f
4:20pm  -   -   -  13 16 mph 1013.6mb 71f 66f
4:10pm  -   -   -  11 16 mph 1013.5mb 71f 65f
4:00pm  -   -   -  13 16 mph 1013.5mb 71f 65f
3:50pm 1ft 3s 3s 13 18 mph 1013.5mb 71f 65f
3:40pm 1ft  -  3s 11 18 mph 1013.5mb 71f 65f
3:30pm  -   -   -  13 16 mph 1013.4mb 71f 64f
3:20pm  -   -   -  11 16 mph 1013.3mb 71f 64f
3:10pm  -   -   -  11 13 mph 1013.4mb 71f 64f
3:00pm  -   -   -  9 13 mph 1013.5mb 71f 64f
2:50pm 1ft 3s 3s 7 11 mph 1013.4mb 71f 63f
2:40pm 1ft  -  3s 9 11 mph 1013.2mb 71f 63f
2:30pm  -   -   -  9 13 mph 1013mb 71f 63f
2:20pm  -   -   -  11 13 mph 1012.8mb 71f 62f
2:10pm  -   -   -  11 13 mph 1012.8mb 71f 62f
2:00pm  -   -   -  11 13 mph 1012.8mb 71f 62f
1:50pm 1ft 3s 3s 13 16 mph 1013mb 71f 62f
1:40pm  -   -   -  16 18 mph 1013.1mb 71f 62f
1:30pm  -   -   -  13 18 mph 1013mb 71f 61f
1:20pm  -   -   -  13 18 mph 1013.3mb 71f 61f
1:10pm  -   -   -  16 18 mph 1013.2mb 71f 61f
1:00pm  -   -   -  16 20 mph 1013.5mb 71f 61f
12:50pm 0.7ft  -  3s 16 18 mph 1013.8mb 71f 61f
12:40pm 0.7ft  -  3s 13 18 mph 1013.9mb 71f 62f
12:30pm  -   -   -  13 18 mph 1013.9mb 71f 62f
12:20pm  -   -   -  11 16 mph 1013.8mb 71f 62f
12:10pm  -   -   -  11 13 mph 1013.7mb 71f 61f
12:00pm  -   -   -  11 13 mph 1013.5mb 71f 61f
11:50am 1ft 3s 3s 11 13 mph 1013.5mb 71f 61f
11:40am  -   -   -  9 13 mph 1013.4mb 71f 61f
11:30am  -   -   -  9 11 mph 1013.3mb 71f 61f
11:20am  -   -   -  7 9 mph 1013.1mb 71f 61f
11:10am  -   -   -  7 9 mph 1013mb 71f 61f
11:00am  -   -   -  4 7 mph 1012.8mb 71f 61f
10:50am 1.3ft 3s 3s 2 4 mph 1012.9mb 71f 60f
10:40am 1.3ft  -  3s  -  2 mph 1013mb 71f 60f
10:30am  -   -   -  2 4 mph 1013mb 71f 60f
10:20am  -   -   -  2 7 mph 1013.1mb 71f 60f
10:10am  -   -   -  7 11 mph 1013.3mb 71f 60f
10:00am  -   -   -  11 16 mph 1013mb 71f 60f
9:50am 1.6ft 3s 3s 11 18 mph 1013.3mb 71f 61f
9:40am 1.6ft  -  3s 11 16 mph 1013.2mb 71f 60f
9:30am  -   -   -  13 18 mph 1013.1mb 71f 60f
9:20am  -   -   -  16 22 mph 1013.4mb 71f 61f
9:10am  -   -   -  22 27 mph 1013.6mb 71f 62f
9:00am  -   -   -  18 27 mph 1013.2mb 71f 62f
8:50am 1.3ft 3s 3s 13 18 mph 1012.9mb 71f 62f
8:40am  -   -   -  9 13 mph 1012.3mb 71f 62f
8:30am  -   -   -  11 16 mph 1011.9mb 71f 62f
8:20am  -   -   -  13 18 mph 1012.2mb 71f 62f
8:10am  -   -   -  13 16 mph 1012.2mb 71f 62f
8:00am  -   -   -  16 18 mph 1012mb 71f 63f
7:50am 1.3ft 3s 3s 16 20 mph 1012mb 71f 63f
7:40am  -   -   -  13 18 mph 1011.6mb 71f 63f
7:30am  -   -   -  13 18 mph 1011.3mb 71f 63f
7:20am  -   -   -  13 18 mph 1011.2mb 71f 63f
7:10am  -   -   -  16 20 mph 1011.2mb 71f 64f
7:00am  -   -   -  18 22 mph 1011.2mb 71f 64f
6:50am 1ft 3s 3s 13 16 mph 1010.7mb 71f 64f
6:40am  -   -   -  13 16 mph 1010.5mb 71f 64f
6:30am  -   -   -  11 16 mph 1010.6mb 71f 64f
6:20am  -   -   -  11 13 mph 1010.6mb 71f 64f
6:10am  -   -   -  9 11 mph 1010.6mb 71f 64f
6:00am  -   -   -  11 13 mph 1010.5mb 71f 64f
5:50am 1.3ft 3s 3s 11 16 mph 1010.4mb 71f 64f
5:40am  -   -   -  11 13 mph 1010.4mb 71f 64f
5:30am  -   -   -  11 16 mph 1010.4mb 71f 65f
5:20am  -   -   -  11 16 mph 1010.3mb 71f 65f
5:10am  -   -   -  13 16 mph 1010.3mb 71f 65f
5:00am  -   -   -  13 16 mph 1010.1mb 71f 65f
4:50am 1.6ft 3s 3s 13 16 mph 1010.2mb 71f 65f
4:40am  -   -   -  13 18 mph 1010.2mb 71f 65f
4:30am  -   -   -  13 18 mph 1010.3mb 71f 65f
4:20am  -   -   -  11 16 mph 1010.3mb 71f 65f
4:10am  -   -   -  13 16 mph 1010.2mb 71f 65f
4:00am  -   -   -  13 18 mph 1010.2mb 71f 65f
3:50am 2ft 4s 3s 16 18 mph 1010.3mb 71f 65f
3:40am 2ft  -  3s 16 18 mph 1010.3mb 71f 65f
3:30am  -   -   -  16 20 mph 1010.4mb 71f 65f
3:20am  -   -   -  16 20 mph 1010.3mb 71f 65f
3:10am  -   -   -  16 18 mph 1010.2mb 71f 66f
3:00am  -   -   -  16 18 mph 1010.2mb 71f 66f
2:50am 2ft 4s 3s 16 20 mph 1010.2mb 71f 66f
2:40am 2ft  -  3s 16 20 mph 1010.3mb 71f 66f
2:30am  -   -   -  16 18 mph 1010.3mb 71f 66f
2:20am  -   -   -  16 18 mph 1010.1mb 71f 66f
2:10am  -   -   -  16 20 mph 1010.1mb 71f 66f
2:00am  -   -   -  16 20 mph 1010mb 71f 66f
1:50am 2ft 4s 3s 16 20 mph 1010mb 71f 67f
1:40am  -   -   -  16 20 mph 1010mb 71f 67f
1:30am  -   -   -  18 20 mph 1010mb 71f 67f
1:20am  -   -   -  18 20 mph 1010.1mb 71f 67f
1:10am  -   -   -  18 20 mph 1010.1mb 71f 67f
1:00am  -   -   -  18 22 mph 1010mb 71f 67f
12:50am 1.6ft 3s 3s 18 20 mph 1009.9mb 71f 67f
12:40am 1.6ft  -  3s 16 20 mph 1009.9mb 71f 67f
12:30am  -   -   -  16 18 mph 1009.9mb 71f 67f
12:20am  -   -   -  13 18 mph 1009.8mb 71f 67f
12:10am  -   -   -  13 18 mph 1009.9mb 71f 67f
12:00am  -   -   -  16 18 mph 1009.9mb 71f 67f
Tue 09/27 11:50pm 1ft 3s 3s 16 18 mph 1010mb 71f 67f
11:40pm  -   -   -  13 16 mph 1009.9mb 71f 67f
11:30pm  -   -   -  13 18 mph 1009.9mb 71f 67f
11:20pm  -   -   -  16 18 mph 1010mb 71f 68f
11:10pm  -   -   -  13 16 mph 1010mb 71f 68f
11:00pm  -   -   -  13 16 mph 1009.9mb 71f 68f
10:50pm 0.7ft  -  3s 13 16 mph 1009.9mb 71f 68f
10:40pm  -   -   -  13 16 mph 1009.9mb 71f 69f
10:30pm  -   -   -  13 16 mph 1009.9mb 71f 69f
10:20pm  -   -   -  13 16 mph 1009.8mb 71f 69f
10:10pm  -   -   -  13 18 mph 1009.8mb 71f 69f
10:00pm  -   -   -  11 13 mph 1009.8mb 71f 70f
9:50pm 1ft 5s 3s 7 11 mph 1009.8mb 71f 70f
9:40pm 1ft  -  3s 7 9 mph 1009.7mb 71f 70f
9:30pm  -   -   -  4 7 mph 1009.7mb 71f 70f
9:20pm  -   -   -  4 7 mph 1009.6mb 71f 70f
9:10pm  -   -   -  2 4 mph 1009.6mb 71f 70f
9:00pm  -   -   -  4 7 mph 1009.6mb 71f 70f
8:50pm 1.3ft 3s 3s 7
mph
1009.6mb 71f 70f
8:40pm  -   -   -  7 9 mph 1009.6mb 71f 70f
8:30pm  -   -   -  7 9 mph 1009.5mb 71f 70f
8:20pm  -   -   -  7 9 mph 1009.5mb 71f 70f
8:10pm  -   -   -  9 11 mph 1009.4mb 71f 70f
8:00pm  -   -   -  9 11 mph 1009.3mb 71f 70f
7:50pm 1.6ft 4s 3s 9 11 mph 1009.1mb 71f 70f
7:40pm 1.6ft  -  3s 11 13 mph 1009.1mb 71f 70f
7:30pm  -   -   -  11 13 mph 1009mb 71f 70f
7:20pm  -   -   -  11 16 mph 1008.9mb 71f 70f
7:10pm  -   -   -  13 16 mph 1008.9mb 71f 70f
7:00pm  -   -   -  13 16 mph 1008.8mb 71f 70f
6:50pm 2.5ft 4s 3s 13 18 mph 1008.7mb 71f 71f
6:40pm 2.5ft  -  3s 16 18 mph 1008.7mb 71f 70f
6:30pm  -   -   -  16 20 mph 1008.7mb 71f 70f
6:20pm  -   -   -  16 18 mph 1008.6mb 71f 71f
6:10pm  -   -   -  16 20 mph 1008.4mb 71f 71f
6:00pm  -   -   -  16 20 mph 1008.3mb 71f 71f
5:50pm 3ft 4s 4s 18 20 mph 1008.3mb 71f 71f
5:40pm 3ft  -  4s 18 22 mph 1008.2mb 71f 71f
5:30pm  -   -   -  20 25 mph 1008mb 71f 71f
5:20pm  -   -   -  20 25 mph 1007.9mb 71f 71f
5:10pm  -   -   -  20 27 mph 1007.9mb 71f 71f
5:00pm  -   -   -  22 27 mph 1007.8mb 72f 71f
4:50pm 3ft 4s 4s 20 25 mph 1007.8mb 72f 72f
4:40pm 3ft  -  4s 20 27 mph 1007.7mb 72f 71f
4:30pm  -   -   -  20 25 mph 1007.7mb 72f 71f
4:20pm  -   -   -  22 27 mph 1007.6mb 72f 71f
4:10pm  -   -   -  22 27 mph 1007.6mb 72f 71f
4:00pm  -   -   -  22 29 mph 1007.7mb 72f 71f
3:50pm 3.5ft 4s 4s 22 29 mph 1007.7mb 72f 71f
3:40pm 3.5ft  -  4s 20 27 mph 1007.7mb 72f 71f
3:30pm  -   -   -  22 27 mph 1007.8mb 72f 71f
3:20pm  -   -   -  22 27 mph 1007.8mb 72f 71f
3:10pm  -   -   -  22 29 mph 1007.7mb 72f 70f
3:00pm  -   -   -  25 31 mph 1007.8mb 72f 70f
2:50pm 4.5ft 5s 4s 22 29 mph 1007.8mb 72f 70f
2:40pm 4.5ft  -  4s 22 29 mph 1007.9mb 72f 70f
2:30pm  -   -   -  25 34 mph 1007.9mb 72f 70f
2:20pm  -   -   -  25 31 mph 1008mb 72f 70f
2:10pm  -   -   -  25 29 mph 1008mb 72f 69f
2:00pm  -   -   -  25 31 mph 1008mb 72f 69f
1:50pm 4ft 4s 4s 25 31 mph 1008mb 72f 69f
1:40pm 4ft  -  4s 22 29 mph 1008mb 72f 69f
1:30pm  -   -   -  27 31 mph 1008mb 72f 69f
1:20pm  -   -   -  25 31 mph 1008mb 72f 69f
1:10pm  -   -   -  25 31 mph 1008.1mb 72f 69f
1:00pm  -   -   -  27 34 mph 1008.3mb 72f 69f
12:50pm 3.5ft 5s 4s 25 31 mph 1008.5mb 72f 69f
12:40pm 3.5ft  -  4s 25 31 mph 1008.7mb 72f 69f
12:30pm  -   -   -  25 34 mph 1008.7mb 72f 69f
12:20pm  -   -   -  25 36 mph 1008.8mb 72f 69f
12:10pm  -   -   -  27 34 mph 1008.9mb 72f 69f
12:00pm  -   -   -  22 31 mph 1009mb 72f 68f
11:50am 3.5ft 4s 4s 25 29 mph 1009.2mb 72f 68f
11:40am 3.5ft  -  4s 25 31 mph 1009.3mb 72f 68f
11:30am  -   -   -  22 29 mph 1009.5mb 72f 67f
11:20am  -   -   -  22 27 mph 1009.6mb 72f 67f
11:10am  -   -   -  25 29 mph 1009.7mb 72f 67f
11:00am  -   -   -  22 29 mph 1009.8mb 72f 66f
10:50am 3.5ft 4s 4s 22 27 mph 1010mb 72f 66f
10:40am 3.5ft  -  4s 22 29 mph 1010.1mb 72f 65f
10:30am  -   -   -  22 27 mph 1010.2mb 72f 65f
10:20am  -   -   -  22 27 mph 1010.3mb 72f 65f
10:10am  -   -   -  22 27 mph 1010.3mb 72f 64f
10:00am  -   -   -  22 27 mph 1010.3mb 72f 64f
9:50am 3.5ft 4s 4s 25 29 mph 1010.3mb 72f 63f
9:40am 3.5ft  -  4s 22 29 mph 1010.3mb 72f 63f
9:30am  -   -   -  25 31 mph 1010.5mb 72f 62f
9:20am  -   -   -  25 29 mph 1010.6mb 72f 62f
9:10am  -   -   -  25 31 mph 1010.6mb 72f 62f
9:00am  -   -   -  25 31 mph 1010.6mb 72f 62f
8:50am 3.5ft 4s 4s 25 31 mph 1010.8mb 72f 62f
8:40am 3.5ft  -  4s 25 31 mph 1010.8mb 72f 61f
8:30am  -   -   -  25 31 mph 1010.9mb 72f 61f
8:20am  -   -   -  25 31 mph 1010.9mb 72f 61f
8:10am  -   -   -  25 29 mph 1010.9mb 72f 61f
8:00am  -   -   -  25 29 mph 1011mb 72f 61f
7:50am 3.5ft 4s 4s 25 29 mph 1011mb 72f 61f
7:40am  -   -   -  25 29 mph 1011mb 72f 62f
7:30am  -   -   -  25 29 mph 1011mb 72f 61f
7:20am  -   -   -  25 29 mph 1011mb 72f 62f
7:10am  -   -   -  22 29 mph 1011.1mb 72f 61f
7:00am  -   -   -  25 27 mph 1011.1mb 72f 61f
6:50am 3.5ft 4s 4s 25 29 mph 1011.2mb 72f 61f
6:40am  -   -   -  25 29 mph 1011.2mb 72f 61f
6:30am  -   -   -  25 29 mph 1011.1mb 72f 61f
6:20am  -   -   -  22 29 mph 1011.2mb 72f 61f
6:10am  -   -   -  25 29 mph 1011.3mb 72f 61f
6:00am  -   -   -  22 29 mph 1011.4mb 72f 61f
5:50am 3.5ft 4s 4s 25 29 mph 1011.5mb 72f 61f
5:40am  -   -   -  25 27 mph 1011.5mb 72f 62f
5:30am  -   -   -  22 27 mph 1011.5mb 72f 62f
5:20am  -   -   -  22 27 mph 1011.5mb 72f 62f
5:10am  -   -   -  22 27 mph 1011.6mb 72f 62f
5:00am  -   -   -  22 27 mph 1011.5mb 72f 62f
4:50am 3.5ft 4s 4s 20 25 mph 1011.5mb 72f 62f
4:40am 3.5ft  -  4s 22 27 mph 1011.6mb 72f 63f
4:30am  -   -   -  22 27 mph 1011.7mb 72f 63f
4:20am  -   -   -  22 25 mph 1011.7mb 72f 64f
4:10am  -   -   -  22 27 mph 1011.6mb 72f 64f
4:00am  -   -   -  22 27 mph 1011.7mb 72f 64f
3:50am 3.5ft 4s 4s 22 27 mph 1011.7mb 72f 64f
3:40am  -   -   -  22 27 mph 1011.8mb 72f 64f
3:30am  -   -   -  22 25 mph 1011.8mb 72f 64f
3:20am  -   -   -  20 25 mph 1011.9mb 72f 64f
3:10am  -   -   -  20 25 mph 1012mb 72f 64f
3:00am  -   -   -  22 27 mph 1012.1mb 72f 64f
2:50am 3ft 4s 4s 22 27 mph 1012.2mb 72f 64f
2:40am  -   -   -  20 25 mph 1012.3mb 72f 64f
2:30am  -   -   -  20 27 mph 1012.4mb 72f 64f
2:20am  -   -   -  22 27 mph 1012.5mb 72f 64f
2:10am  -   -   -  22 27 mph 1012.5mb 72f 64f
2:00am  -   -   -  22 27 mph 1012.6mb 72f 64f
1:50am 2.5ft 4s 3s 22 27 mph 1012.7mb 72f 64f
1:40am  -   -   -  22 27 mph 1012.8mb 72f 64f
1:30am  -   -   -  22 29 mph 1012.9mb 72f 64f
1:20am  -   -   -  22 27 mph 1012.9mb 72f 64f
1:10am  -   -   -  20 25 mph 1012.9mb 72f 65f
1:00am  -   -   -  20 25 mph 1012.9mb 72f 65f
12:50am 2.5ft 4s 3s 20 22 mph 1013mb 72f 65f
12:40am  -   -   -  20 25 mph 1013.1mb 72f 65f
12:30am  -   -   -  20 22 mph 1013.2mb 72f 65f
12:20am  -   -   -  18 22 mph 1013.2mb 72f 65f
12:10am  -   -   -  20 25 mph 1013.3mb 72f 66f
12:00am  -   -   -  20 22 mph 1013.3mb 72f 66f
Mon 09/26 11:50pm 2.5ft 4s 3s 20 22 mph 1013.3mb 72f 66f
11:40pm  -   -   -  20 22 mph 1013.4mb 72f 66f
11:30pm  -   -   -  18 22 mph 1013.4mb 72f 66f
11:20pm  -   -   -  18 22 mph 1013.5mb 72f 66f
11:10pm  -   -   -  18 22 mph 1013.5mb 72f 66f
11:00pm  -   -   -  20 25 mph 1013.6mb 72f 66f
10:50pm 2.5ft 4s 3s 20 25 mph 1013.6mb 72f 67f
10:40pm 2.5ft  -  3s 20 22 mph 1013.6mb 72f 67f
10:30pm  -   -   -  20 22 mph 1013.5mb 72f 66f
10:20pm  -   -   -  20 25 mph 1013.7mb 72f 67f
10:10pm  -   -   -  20 25 mph 1013.8mb 72f 67f
10:00pm  -   -   -  20 25 mph 1013.8mb 72f 67f
9:50pm 2.5ft 4s 3s 20 22 mph 1013.9mb 72f 67f
9:40pm 2.5ft  -  3s 18 22 mph 1013.9mb 72f 67f
9:30pm  -   -   -  20 25 mph 1013.9mb 72f 67f
9:20pm  -   -   -  18 22 mph 1014mb 72f 68f
9:10pm  -   -   -  20 22 mph 1014mb 72f 68f
9:00pm  -   -   -  20 25 mph 1014.1mb 72f 68f
8:50pm 2.5ft 4s 4s 18 22 mph 1014.2mb 72f 68f
8:40pm  -   -   -  18 25 mph 1014.1mb 72f 68f
8:30pm  -   -   -  20 27 mph 1014.2mb 72f 68f
8:20pm  -   -   -  20 25 mph 1014.1mb 73f 69f
8:10pm  -   -   -  20 27 mph 1014mb 73f 69f
8:00pm  -   -   -  20 25 mph 1013.9mb 73f 69f
7:50pm 3ft 4s 4s 20 29 mph 1014mb 73f 69f
7:40pm 3ft  -  4s 20 27 mph 1013.8mb 73f 68f
7:30pm  -   -   -  22 27 mph 1013.8mb 73f 68f
7:20pm  -   -   -  22 29 mph 1013.8mb 73f 68f
7:10pm  -   -   -  20 27 mph 1013.7mb 73f 68f
7:00pm  -   -   -  22 27 mph 1013.6mb 73f 68f
6:50pm 2.5ft 4s 4s 22 29 mph 1013.5mb 73f 68f
6:40pm  -   -   -  22 29 mph 1013.5mb 73f 68f
6:30pm  -   -   -  20 27 mph 1013.3mb 73f 68f
6:20pm  -   -   -  20 27 mph 1013.3mb 73f 68f
6:10pm  -   -   -  20 27 mph 1013.3mb 73f 68f
6:00pm  -   -   -  20 27 mph 1013.2mb 73f 68f
5:50pm 2.5ft 4s 4s 20 29 mph 1013.2mb 73f 68f
5:40pm 2.5ft  -  4s 22 27 mph 1013.2mb 73f 68f
5:30pm  -   -   -  22 31 mph 1013.1mb 73f 68f
5:20pm  -   -   -  20 27 mph 1013mb 73f 68f
5:10pm  -   -   -  20 27 mph 1013mb 73f 68f
5:00pm  -   -   -  20 29 mph 1012.9mb 73f 68f
4:50pm 2.5ft 4s 3s 20 27 mph 1012.8mb 73f 67f
4:40pm 2.5ft  -  3s 18 25 mph 1012.8mb 73f 67f
4:30pm  -   -   -  20 27 mph 1012.9mb 73f 67f
4:20pm  -   -   -  20 25 mph 1013mb 73f 67f
4:10pm  -   -   -  20 27 mph 1013mb 73f 67f
4:00pm  -   -   -  20 25 mph 1012.9mb 73f 67f
3:50pm 2.5ft 4s 4s 20 25 mph 1012.9mb 73f 67f
3:40pm  -   -   -  20 25 mph 1013mb 73f 67f
3:30pm  -   -   -  20 25 mph 1013mb 73f 66f
3:20pm  -   -   -  20 25 mph 1013.1mb 73f 66f
3:10pm  -   -   -  20 25 mph 1013.2mb 73f 66f
3:00pm  -   -   -  20 25 mph 1013.2mb 73f 66f
2:50pm 2.5ft 4s 4s 20 25 mph 1013.4mb 73f 66f
2:40pm  -   -   -  20 27 mph 1013.3mb 73f 66f
2:30pm  -   -   -  22 27 mph 1013.3mb 73f 66f
2:20pm  -   -   -  22 27 mph 1013.2mb 73f 66f
2:10pm  -   -   -  22 27 mph 1013.3mb 73f 66f
2:00pm  -   -   -  22 29 mph 1013.3mb 73f 66f
1:50pm 2.5ft 4s 4s 22 29 mph 1013.3mb 73f 66f
1:40pm  -   -   -  22 27 mph 1013.3mb 73f 66f
1:30pm  -   -   -  22 27 mph 1013.5mb 73f 66f
1:20pm  -   -   -  20 27 mph 1013.5mb 73f 66f
1:10pm  -   -   -  20 27 mph 1013.6mb 73f 66f
1:00pm  -   -   -  20 25 mph 1013.4mb 73f 66f
12:50pm 2.5ft 4s 3s 20 27 mph 1013.7mb 73f 66f
12:40pm 2.5ft  -  3s 25 29 mph 1013.9mb 73f 65f
12:30pm  -   -   -  22 27 mph 1013.8mb 73f 65f
12:20pm  -   -   -  22 29 mph 1013.7mb 73f 65f
12:10pm  -   -   -  20 27 mph 1013.6mb 73f 65f
12:00pm  -   -   -  18 25 mph 1013.1mb 73f 65f
11:50am 2.5ft 4s 3s 20 25 mph 1013.4mb 73f 65f
11:40am  -   -   -  20 25 mph 1013.5mb 73f 65f
11:30am  -   -   -  20 25 mph 1013.3mb - 65f
11:20am  -   -   -  20 27 mph 1013.4mb 73f 65f
11:10am  -   -   -  20 25 mph 1013.5mb 73f 65f
11:00am  -   -   -  18 22 mph 1013.5mb 73f 65f
10:50am 2.5ft 4s 4s 18 22 mph 1013.7mb 73f 65f
10:40am 2.5ft  -  4s 18 25 mph 1014.1mb 73f 65f
10:30am  -   -   -  18 25 mph 1013.9mb 73f 65f
10:20am  -   -   -  16 22 mph 1013.7mb 73f 65f
10:10am  -   -   -  16 20 mph 1014mb 73f 65f
10:00am  -   -   -  16 20 mph 1013.8mb 73f 66f
9:50am 3.5ft 4s 4s 18 25 mph 1013.9mb 73f 67f
9:40am 3.5ft  -  4s 20 25 mph 1014mb 73f 67f
9:30am  -   -   -  20 25 mph 1014.1mb 73f 67f
9:20am  -   -   -  20 25 mph 1014mb 73f 67f
9:10am  -   -   -  20 25 mph 1014.4mb 73f 66f
9:00am  -   -   -  20 25 mph 1013.9mb 73f 66f
8:50am 2.5ft 3s 3s 22 29 mph 1013.9mb 73f 66f
8:40am  -   -   -  25 29 mph 1013.8mb 73f 66f
8:30am  -   -   -  25 29 mph 1013.5mb 73f 66f
8:20am  -   -   -  27 34 mph 1012.9mb 73f 67f
8:10am  -   -   -  27 34 mph 1012.8mb 73f 67f
8:00am  -   -   -  27 34 mph 1012.7mb 73f 69f
7:50am 2.5ft 3s 3s 27 36 mph 1012.7mb 73f 71f
7:40am  -   -   -  20 29 mph 1012.3mb 73f 72f
7:30am  -   -   -  18 25 mph 1011.8mb 73f 71f
7:20am  -   -   -  18 22 mph 1011.8mb 73f 71f
7:10am  -   -   -  16 20 mph 1011.7mb 73f 71f
7:00am  -   -   -  16 22 mph 1011.7mb 73f 71f
6:50am 2.5ft 4s 4s 13 22 mph 1011.8mb 73f 71f
6:40am 2.5ft  -  4s 13 18 mph 1011.6mb 73f 71f
6:30am  -   -   -  16 18 mph 1011.7mb 73f 71f
6:20am  -   -   -  16 20 mph 1011.8mb 73f 71f
6:10am  -   -   -  13 18 mph 1011.9mb 73f 69f
6:00am  -   -   -  16 20 mph 1012.1mb 73f 68f
5:50am 3.5ft 4s 4s 20 25 mph 1011.9mb 73f 67f
5:40am 3.5ft  -  4s 22 29 mph 1012mb 73f 68f
5:30am  -   -   -  22 31 mph 1011.8mb 73f 69f
5:20am  -   -   -  20 27 mph 1011.9mb 73f 70f
5:10am  -   -   -  22 27 mph 1011.9mb 73f 70f
5:00am  -   -   -  20 25 mph 1011.8mb 73f 70f
4:50am 3.5ft 4s 4s 20 25 mph 1011.9mb 73f 70f
4:40am  -   -   -  22 25 mph 1011.8mb 73f 70f
4:30am  -   -   -  22 25 mph 1012mb 73f 70f
4:20am  -   -   -  22 27 mph 1012mb 73f 70f
4:10am  -   -   -  22 27 mph 1012mb 73f 70f
4:00am  -   -   -  22 29 mph 1012.3mb 73f 70f
3:50am 3.5ft 4s 4s 22 27 mph 1012.4mb 73f 70f
3:40am  -   -   -  20 27 mph 1012.5mb 73f 70f
3:30am  -   -   -  20 25 mph 1012.6mb 73f 70f
3:20am  -   -   -  20 25 mph 1012.9mb 73f 70f
3:10am  -   -   -  20 25 mph 1012.9mb 73f 70f
3:00am  -   -   -  22 25 mph 1013mb 73f 70f
2:50am 3.5ft 4s 4s 20 27 mph 1013.1mb 73f 70f
2:40am  -   -   -  20 25 mph 1013.3mb 73f 70f
2:30am  -   -   -  22 25 mph 1013.5mb 73f 70f
2:20am  -   -   -  20 25 mph 1013.7mb 73f 70f
2:10am  -   -   -  20 25 mph 1014mb 73f 70f
2:00am  -   -   -  20 25 mph 1014.1mb 73f 70f
1:50am 2.5ft 5s 4s 18 22 mph 1014.5mb 73f 70f
1:40am  -   -   -  18 22 mph 1015mb 73f 70f
1:30am  -   -   -  18 22 mph 1015.1mb 73f 70f
1:20am  -   -   -  18 22 mph 1015.2mb 73f 70f
1:10am  -   -   -  16 20 mph 1015.3mb 73f 70f
1:00am  -   -   -  16 18 mph 1015.4mb 73f 70f
12:50am 2.5ft 5s 4s 18 20 mph 1015.5mb 73f 70f
12:40am 2.5ft  -  4s 18 20 mph 1015.4mb 73f 70f
12:30am  -   -   -  18 20 mph 1015.6mb 73f 70f
12:20am  -   -   -  16 20 mph 1015.7mb 73f 70f
12:10am  -   -   -  18 20 mph 1015.8mb 73f 70f
12:00am  -   -   -  16 20 mph 1015.9mb 73f 70f
Sun 09/25 11:50pm 2.5ft 5s 4s 16 20 mph 1016.1mb 73f 70f
11:40pm 2.5ft  -  4s 16 18 mph 1016.3mb 73f 70f
11:30pm  -   -   -  13 18 mph 1016.4mb 73f 70f
11:20pm  -   -   -  16 18 mph 1016.5mb 73f 70f
11:10pm  -   -   -  16 18 mph 1016.6mb 73f 70f
11:00pm  -   -   -  16 18 mph 1016.7mb 73f 71f
10:50pm 2.5ft 5s 4s 16 18 mph 1016.6mb 73f 71f
10:40pm  -   -   -  16 20 mph 1016.6mb 73f 71f
10:30pm  -   -   -  16 18 mph 1016.6mb 73f 71f
10:20pm  -   -   -  16 18 mph 1016.6mb 73f 71f
10:10pm  -   -   -  16 20 mph 1016.7mb 73f 71f
10:00pm  -   -   -  16 20 mph - 73f -
9:50pm 2.5ft 5s 4s 16 20 mph 1016.8mb 73f 72f
9:40pm 2.5ft  -  4s 16 18 mph 1017.1mb 73f 72f
9:30pm  -   -   -  16 18 mph 1017.1mb 73f 72f
9:20pm  -   -   -  13 18 mph 1017.3mb 73f 72f
9:10pm  -   -   -  13 16 mph 1017.5mb 73f 72f
9:00pm  -   -   -  13 18 mph 1017.6mb 73f 71f
8:50pm 2.5ft 5s 4s 13 16 mph 1017.6mb 73f 71f
8:40pm  -   -   -  13 18 mph 1017.7mb 73f 71f
8:30pm  -   -   -  13 18 mph 1017.8mb 73f 71f
8:20pm  -   -   -  16 18 mph 1017.8mb 73f 71f
8:10pm  -   -   -  16 18 mph 1017.7mb 73f 71f
8:00pm  -   -   -  16 20 mph 1017.6mb 73f 71f
7:50pm 2.5ft 5s 4s 16 20 mph 1017.6mb 73f 71f
7:40pm  -   -   -  16 20 mph 1017.7mb 73f 70f
7:30pm  -   -   -  16 20 mph 1017.6mb 73f 70f
7:20pm  -   -   -  18 22 mph 1017.5mb 73f 70f
7:10pm  -   -   -  18 22 mph 1017.6mb 73f 70f
7:00pm  -   -   -  18 22 mph 1017.7mb 73f 70f
6:50pm 2.5ft 4s 3s 18 20 mph 1017.8mb 73f 70f
6:40pm 2.5ft  -  3s 18 20 mph 1018mb 73f 69f
6:30pm  -   -   -  18 22 mph 1018mb 73f 69f
6:20pm  -   -   -  18 20 mph 1018.3mb 73f 69f
6:10pm  -   -   -  18 20 mph 1018.3mb 73f 69f
6:00pm  -   -   -  16 20 mph 1018.5mb 73f 69f
5:50pm 2ft 4s 3s 18 20 mph 1018.6mb 73f 69f
5:40pm  -   -   -  18 20 mph 1018.6mb 73f 69f
5:30pm  -   -   -  16 20 mph 1018.7mb 73f 69f
5:20pm  -   -   -  16 20 mph 1018.8mb 73f 69f
5:10pm  -   -   -  16 18 mph 1018.8mb 73f 69f
5:00pm  -   -   -  16 18 mph 1019mb 73f 69f
4:50pm 2ft 4s 3s 16 18 mph 1019mb 73f 69f
4:40pm  -   -   -  13 18 mph 1019.3mb 73f 69f
4:30pm  -   -   -  13 16 mph 1019.4mb 73f 69f
4:20pm  -   -   -  13 18 mph 1019.5mb 73f 69f
4:10pm  -   -   -  16 18 mph 1019.3mb 73f 68f
4:00pm  -   -   -  13 18 mph 1019.4mb 74f 68f
3:50pm 2ft 5s 3s 16 18 mph 1019.6mb 74f 68f
3:40pm 2ft  -  3s 16 18 mph 1019.8mb 74f 68f
3:30pm  -   -   -  16 18 mph 1019.9mb 74f 68f
3:20pm  -   -   -  16 18 mph 1020mb 74f 67f
3:10pm  -   -   -  16 20 mph 1020.2mb 74f 67f
3:00pm  -   -   -  16 20 mph 1020.2mb 74f 67f
2:50pm 2ft 5s 4s 16 20 mph 1020.5mb 74f 67f
2:40pm  -   -   -  16 18 mph 1020.6mb 74f 67f
2:30pm  -   -   -  13 18 mph 1020.8mb 74f 67f
2:20pm  -   -   -  13 16 mph 1021mb 74f 67f
2:10pm  -   -   -  11 16 mph 1021.2mb 74f 67f
2:00pm  -   -   -  13 16 mph 1021.2mb 74f 67f
1:50pm 2ft 5s 4s 13 16 mph 1021.2mb 74f 67f
1:40pm  -   -   -  11 16 mph 1021.1mb - 67f
1:30pm  -   -   -  11 16 mph 1021.3mb 74f 66f
1:20pm  -   -   -  11 16 mph 1021.3mb 74f 66f
1:10pm  -   -   -  11 16 mph 1021.5mb 74f 66f
1:00pm  -   -   -  11 16 mph 1021.7mb 74f 66f
12:50pm 2ft 5s 4s 13 16 mph 1021.8mb 74f 66f
12:40pm 2ft  -  4s 11 16 mph 1021.9mb 74f 66f
12:30pm  -   -   -  11 16 mph 1022mb 73f 66f
12:20pm  -   -   -  11 13 mph 1022.1mb 74f 66f
12:10pm  -   -   -  11 16 mph 1022mb 74f 66f
12:00pm  -   -   -  11 13 mph 1022.2mb 73f 66f
11:50am 2ft 4s 4s 11 13 mph 1022.3mb 73f 65f
11:40am 2ft  -  4s 11 16 mph 1022.2mb 73f 65f
11:30am  -   -   -  11 16 mph 1022.3mb 73f 65f
11:20am  -   -   -  9 13 mph 1022.4mb 73f 65f
11:10am  -   -   -  9 13 mph 1022.4mb 73f 65f
11:00am  -   -   -  9 13 mph 1022.5mb 73f 65f
10:50am 2ft 5s 4s 9 13 mph 1022.5mb 73f 65f
10:40am 2ft  -  4s 9 13 mph 1022.6mb 73f 64f
10:30am  -   -   -  9 13 mph 1022.8mb 73f 64f